createdAt,value
2023-05-17T00:01:51.188Z,34.65
2023-05-17T00:04:19.326Z,20.80
2023-05-17T00:06:47.707Z,21.45
2023-05-17T00:09:17.166Z,27.30
2023-05-17T00:11:46.715Z,20.90
2023-05-17T00:14:14.813Z,24.40
2023-05-17T00:16:43.306Z,22.08
2023-05-17T00:19:11.801Z,21.70
2023-05-17T00:21:40.112Z,31.95
2023-05-17T00:24:09.435Z,18.92
2023-05-17T00:26:39.065Z,17.67
2023-05-17T00:29:07.168Z,22.67
2023-05-17T00:31:35.624Z,16.90
2023-05-17T00:34:03.792Z,22.92
2023-05-17T00:36:32.200Z,26.77
2023-05-17T00:39:00.294Z,23.90
2023-05-17T00:41:28.723Z,16.55
2023-05-17T00:43:58.138Z,19.08
2023-05-17T00:46:26.510Z,18.30
2023-05-17T00:48:55.033Z,23.08
2023-05-17T00:51:24.407Z,19.95
2023-05-17T00:53:53.015Z,33.80
2023-05-17T00:56:21.639Z,20.60
2023-05-17T00:58:49.915Z,20.00
2023-05-17T01:01:19.962Z,16.30
2023-05-17T01:03:48.549Z,17.70
2023-05-17T01:06:17.128Z,20.88
2023-05-17T01:08:45.653Z,18.85
2023-05-17T01:11:21.855Z,20.75
2023-05-17T01:13:56.890Z,20.20
2023-05-17T01:16:32.537Z,21.08
2023-05-17T01:19:09.460Z,19.63
2023-05-17T01:21:49.538Z,20.08
2023-05-17T01:24:28.424Z,12.75
2023-05-17T01:26:59.473Z,24.17
2023-05-17T01:29:30.856Z,18.77
2023-05-17T01:32:00.945Z,21.05
2023-05-17T01:34:30.141Z,22.45
2023-05-17T01:36:58.623Z,18.08
2023-05-17T01:39:27.270Z,20.40
2023-05-17T01:42:03.540Z,19.73
2023-05-17T01:44:39.289Z,18.45
2023-05-17T01:47:13.015Z,21.33
2023-05-17T01:49:43.584Z,25.92
2023-05-17T01:52:18.251Z,25.38
2023-05-17T01:54:52.644Z,22.98
2023-05-17T01:59:56.830Z,16.92
2023-05-17T02:02:25.172Z,26.50
2023-05-17T02:04:53.324Z,23.90
2023-05-17T02:07:22.931Z,33.65
2023-05-17T02:09:51.004Z,33.35
2023-05-17T02:12:19.212Z,24.13
2023-05-17T02:14:49.064Z,25.35
2023-05-17T02:17:17.662Z,24.38
2023-05-17T02:19:46.054Z,27.35
2023-05-17T02:22:14.787Z,23.17
2023-05-17T02:24:43.024Z,26.63
2023-05-17T02:27:12.950Z,24.20
2023-05-17T02:29:41.282Z,21.50
2023-05-17T02:32:11.043Z,14.20
2023-05-17T02:34:39.374Z,28.45
2023-05-17T02:37:07.439Z,28.88
2023-05-17T02:39:35.835Z,25.48
2023-05-17T02:42:03.978Z,23.92
2023-05-17T02:44:32.331Z,22.40
2023-05-17T02:47:00.472Z,25.60
2023-05-17T02:49:30.218Z,22.10
2023-05-17T02:51:58.488Z,25.85
2023-05-17T02:54:26.675Z,29.92
2023-05-17T02:56:55.257Z,24.35
2023-05-17T02:59:23.665Z,25.55
2023-05-17T03:01:51.892Z,21.38
2023-05-17T03:04:20.811Z,20.38
2023-05-17T03:06:50.880Z,21.60
2023-05-17T03:09:19.643Z,24.35
2023-05-17T03:11:50.604Z,20.77
2023-05-17T03:14:23.327Z,25.27
2023-05-17T03:16:51.800Z,17.67
2023-05-17T03:19:20.298Z,20.60
2023-05-17T03:21:49.986Z,19.25
2023-05-17T03:24:18.807Z,20.77
2023-05-17T03:26:47.368Z,19.02
2023-05-17T03:29:15.802Z,15.77
2023-05-17T03:31:45.587Z,23.20
2023-05-17T03:34:14.767Z,15.13
2023-05-17T03:36:43.192Z,16.23
2023-05-17T03:39:13.129Z,16.80
2023-05-17T03:41:42.772Z,14.57
2023-05-17T03:44:11.818Z,18.42
2023-05-17T03:46:40.050Z,15.43
2023-05-17T03:49:09.358Z,18.33
2023-05-17T03:51:37.659Z,17.50
2023-05-17T03:54:06.352Z,17.50
2023-05-17T03:56:35.851Z,9.60
2023-05-17T03:59:04.853Z,18.48
2023-05-17T04:01:36.280Z,19.92
2023-05-17T04:04:04.757Z,16.52
2023-05-17T04:06:33.793Z,19.15
2023-05-17T04:09:02.227Z,15.55
2023-05-17T04:11:30.590Z,14.38
2023-05-17T04:14:01.207Z,15.77
2023-05-17T04:16:29.358Z,14.90
2023-05-17T04:18:57.814Z,16.35
2023-05-17T04:21:25.959Z,13.05
2023-05-17T04:23:54.422Z,14.63
2023-05-17T04:26:22.675Z,13.15
2023-05-17T04:28:50.924Z,16.02
2023-05-17T04:31:21.027Z,14.73
2023-05-17T04:33:49.256Z,10.38
2023-05-17T04:36:18.759Z,12.57
2023-05-17T04:38:47.529Z,14.40
2023-05-17T04:41:19.713Z,12.93
2023-05-17T04:43:49.361Z,12.98
2023-05-17T04:46:25.309Z,10.15
2023-05-17T04:48:56.304Z,9.75
2023-05-17T04:51:27.107Z,10.85
2023-05-17T04:53:55.340Z,12.80
2023-05-17T04:56:23.775Z,11.75
2023-05-17T04:58:53.078Z,12.80
2023-05-17T05:01:22.249Z,12.20
2023-05-17T05:03:53.082Z,17.95
2023-05-17T05:06:22.477Z,12.10
2023-05-17T05:08:51.226Z,12.98
2023-05-17T05:11:19.342Z,13.23
2023-05-17T05:13:47.918Z,10.20
2023-05-17T05:16:16.310Z,8.13
2023-05-17T05:18:47.483Z,11.65
2023-05-17T05:21:17.470Z,10.13
2023-05-17T05:23:45.849Z,9.73
2023-05-17T05:26:16.155Z,9.38
2023-05-17T05:28:44.594Z,16.05
2023-05-17T05:31:13.042Z,7.88
2023-05-17T05:33:47.405Z,16.60
2023-05-17T05:36:17.235Z,9.00
2023-05-17T05:38:45.448Z,9.82
2023-05-17T05:41:13.585Z,9.45
2023-05-17T05:43:42.374Z,14.55
2023-05-17T05:46:10.763Z,14.13
2023-05-17T05:48:41.909Z,8.43
2023-05-17T05:51:12.535Z,10.75
2023-05-17T05:53:44.729Z,12.55
2023-05-17T05:56:13.486Z,8.63
2023-05-17T05:58:42.153Z,15.00
2023-05-17T06:01:11.858Z,10.02
2023-05-17T06:03:39.987Z,13.15
2023-05-17T06:06:08.547Z,12.65
2023-05-17T06:08:36.740Z,11.10
2023-05-17T06:11:06.820Z,22.40
2023-05-17T06:13:35.004Z,13.60
2023-05-17T06:16:03.752Z,13.02
2023-05-17T06:18:31.947Z,13.00
2023-05-17T06:21:00.550Z,13.85
2023-05-17T06:23:28.634Z,14.80
2023-05-17T06:25:57.008Z,14.38
2023-05-17T06:28:26.610Z,15.57
2023-05-17T06:30:54.979Z,15.10
2023-05-17T06:33:23.132Z,10.00
2023-05-17T06:35:57.000Z,14.80
2023-05-17T06:38:44.520Z,10.18
2023-05-17T06:41:12.853Z,10.30
2023-05-17T06:43:42.273Z,7.53
2023-05-17T06:46:10.669Z,18.02
2023-05-17T06:48:38.972Z,14.60
2023-05-17T06:51:07.536Z,8.30
2023-05-17T06:53:35.659Z,14.25
2023-05-17T06:56:04.050Z,12.43
2023-05-17T06:58:32.683Z,15.32
2023-05-17T07:01:02.353Z,10.30
2023-05-17T07:03:30.724Z,9.48
2023-05-17T07:06:01.671Z,13.40
2023-05-17T07:08:30.031Z,10.05
2023-05-17T07:10:58.130Z,14.77
2023-05-17T07:13:26.561Z,7.80
2023-05-17T07:15:57.684Z,13.20
2023-05-17T07:18:27.381Z,10.30
2023-05-17T07:20:55.637Z,11.70
2023-05-17T07:23:24.037Z,13.60
2023-05-17T07:25:52.182Z,11.40
2023-05-17T07:28:20.533Z,14.75
2023-05-17T07:30:48.614Z,11.55
2023-05-17T07:33:16.986Z,7.43
2023-05-17T07:35:46.497Z,12.07
2023-05-17T07:38:14.842Z,19.80
2023-05-17T07:40:42.930Z,13.43
2023-05-17T07:43:11.316Z,11.63
2023-05-17T07:45:39.371Z,7.68
2023-05-17T07:48:07.928Z,20.33
2023-05-17T07:50:36.125Z,13.50
2023-05-17T07:53:05.897Z,16.05
2023-05-17T07:55:34.186Z,13.52
2023-05-17T07:58:02.503Z,14.35
2023-05-17T08:00:33.498Z,15.07
2023-05-17T08:03:02.669Z,10.48
2023-05-17T08:05:31.215Z,11.90
2023-05-17T08:08:00.377Z,9.68
2023-05-17T08:10:30.008Z,5.05
2023-05-17T08:12:58.486Z,6.88
2023-05-17T08:15:27.571Z,9.50
2023-05-17T08:17:56.217Z,7.60
2023-05-17T08:20:24.487Z,7.85
2023-05-17T08:22:52.819Z,6.20
2023-05-17T08:25:21.179Z,7.97
2023-05-17T08:27:51.589Z,6.47
2023-05-17T08:30:28.969Z,7.95
2023-05-17T08:32:57.887Z,6.50
2023-05-17T08:35:28.842Z,6.20
2023-05-17T08:37:57.497Z,7.15
2023-05-17T08:40:25.901Z,6.55
2023-05-17T08:42:55.851Z,5.78
2023-05-17T08:45:23.965Z,8.18
2023-05-17T08:48:11.568Z,9.40
2023-05-17T08:50:42.755Z,9.23
2023-05-17T08:53:11.598Z,6.13
2023-05-17T08:55:43.108Z,9.48
2023-05-17T08:58:14.789Z,11.55
2023-05-17T09:00:42.990Z,6.55
2023-05-17T09:03:18.751Z,8.38
2023-05-17T09:05:47.494Z,9.60
2023-05-17T09:08:15.790Z,7.93
2023-05-17T09:10:44.033Z,7.00
2023-05-17T09:13:14.126Z,9.63
2023-05-17T09:15:44.678Z,6.85
2023-05-17T09:18:13.741Z,10.35
2023-05-17T09:20:43.388Z,9.15
2023-05-17T09:23:13.449Z,6.50
2023-05-17T09:25:49.000Z,10.32
2023-05-17T09:28:20.965Z,6.85
2023-05-17T09:30:50.317Z,5.43
2023-05-17T09:33:22.765Z,6.70
2023-05-17T09:35:51.054Z,7.60
2023-05-17T09:38:19.175Z,6.53
2023-05-17T09:40:49.924Z,8.73
2023-05-17T09:43:25.898Z,7.40
2023-05-17T09:45:58.585Z,9.18
2023-05-17T09:48:28.312Z,9.13
2023-05-17T09:50:56.829Z,10.65
2023-05-17T09:53:29.120Z,9.98
2023-05-17T09:56:00.013Z,6.30
2023-05-17T09:58:32.810Z,7.43
2023-05-17T10:01:03.727Z,7.13
2023-05-17T10:03:34.419Z,4.65
2023-05-17T10:06:05.398Z,8.35
2023-05-17T10:08:35.035Z,7.28
2023-05-17T10:11:07.808Z,11.18
2023-05-17T10:13:43.694Z,7.85
2023-05-17T10:16:13.080Z,7.47
2023-05-17T10:18:42.278Z,6.47
2023-05-17T10:21:11.670Z,5.38
2023-05-17T10:23:42.277Z,7.13
2023-05-17T10:26:11.142Z,4.43
2023-05-17T10:28:41.749Z,7.47
2023-05-17T10:31:09.922Z,5.95
2023-05-17T10:33:39.846Z,7.80
2023-05-17T10:36:08.784Z,6.43
2023-05-17T10:38:42.635Z,3.85
2023-05-17T10:41:12.797Z,4.07
2023-05-17T10:43:43.673Z,4.35
2023-05-17T10:46:17.057Z,4.32
2023-05-17T10:48:48.989Z,3.92
2023-05-17T10:51:23.953Z,4.80
2023-05-17T10:54:10.636Z,3.13
2023-05-17T10:56:41.713Z,7.05
2023-05-17T10:59:19.752Z,4.70
2023-05-17T11:01:56.012Z,6.35
2023-05-17T11:04:26.409Z,4.57
2023-05-17T11:06:57.196Z,8.23
2023-05-17T11:09:26.603Z,7.00
2023-05-17T11:12:08.675Z,10.25
2023-05-17T11:14:53.385Z,8.20
2023-05-17T11:17:23.136Z,8.45
2023-05-17T11:19:58.078Z,7.32
2023-05-17T11:22:26.656Z,7.15
2023-05-17T11:24:57.979Z,9.38
2023-05-17T11:27:28.816Z,11.40
2023-05-17T11:29:58.879Z,11.48
2023-05-17T11:32:32.251Z,6.85
2023-05-17T11:35:02.013Z,7.90
2023-05-17T11:37:31.510Z,11.18
2023-05-17T11:40:04.978Z,4.90
2023-05-17T11:42:33.452Z,7.78
2023-05-17T11:45:03.896Z,4.95
2023-05-17T11:47:32.319Z,8.65
2023-05-17T11:50:04.865Z,10.02
2023-05-17T11:52:33.757Z,10.18
2023-05-17T11:55:02.299Z,9.90
2023-05-17T11:57:34.085Z,7.00
2023-05-17T12:00:05.575Z,7.57
2023-05-17T12:02:43.385Z,7.93
2023-05-17T12:05:12.416Z,10.02
2023-05-17T12:07:40.904Z,8.93
2023-05-17T12:10:14.450Z,7.45
2023-05-17T12:12:42.973Z,4.70
2023-05-17T12:15:19.981Z,8.07
2023-05-17T12:17:51.535Z,5.43
2023-05-17T12:20:20.340Z,7.80
2023-05-17T12:22:55.530Z,5.55
2023-05-17T12:25:28.108Z,6.00
2023-05-17T12:28:14.125Z,7.05
2023-05-17T12:30:44.422Z,6.10
2023-05-17T12:33:12.927Z,3.92
2023-05-17T12:35:41.471Z,6.78
2023-05-17T12:38:11.569Z,8.05
2023-05-17T12:40:43.362Z,6.95
2023-05-17T12:43:12.127Z,5.07
2023-05-17T12:45:44.179Z,7.72
2023-05-17T12:48:12.550Z,5.15
2023-05-17T12:50:45.909Z,8.05
2023-05-17T12:53:14.283Z,9.53
2023-05-17T12:55:42.551Z,8.32
2023-05-17T12:58:11.044Z,8.23
2023-05-17T13:00:39.350Z,7.15
2023-05-17T13:03:12.185Z,8.70
2023-05-17T13:05:43.708Z,7.97
2023-05-17T13:08:20.769Z,6.47
2023-05-17T13:10:49.018Z,9.73
2023-05-17T13:13:20.440Z,12.40
2023-05-17T13:15:49.157Z,11.40
2023-05-17T13:18:21.352Z,8.05
2023-05-17T13:20:51.436Z,9.05
2023-05-17T13:23:19.571Z,11.60
2023-05-17T13:25:47.943Z,5.85
2023-05-17T13:28:16.067Z,7.10
2023-05-17T13:30:49.878Z,6.30
2023-05-17T13:33:20.329Z,7.00
2023-05-17T13:35:48.508Z,8.90
2023-05-17T13:38:16.859Z,10.20
2023-05-17T13:40:45.108Z,8.88
2023-05-17T13:43:13.634Z,6.28
2023-05-17T13:45:41.794Z,6.75
2023-05-17T13:48:10.239Z,7.30
2023-05-17T13:50:39.910Z,9.05
2023-05-17T13:53:07.976Z,7.32
2023-05-17T13:55:36.327Z,9.07
2023-05-17T13:58:04.400Z,6.88
2023-05-17T14:00:32.642Z,8.10
2023-05-17T14:03:01.101Z,7.57
2023-05-17T14:05:31.398Z,6.57
2023-05-17T14:08:01.333Z,5.82
2023-05-17T14:10:29.806Z,7.93
2023-05-17T14:12:58.177Z,5.75
2023-05-17T14:15:27.537Z,6.13
2023-05-17T14:17:55.631Z,4.65
2023-05-17T14:20:24.035Z,9.23
2023-05-17T14:22:52.509Z,5.78
2023-05-17T14:25:22.076Z,6.43
2023-05-17T14:27:50.468Z,6.03
2023-05-17T14:30:18.691Z,7.85
2023-05-17T14:32:47.450Z,11.05
2023-05-17T14:35:17.195Z,10.90
2023-05-17T14:37:45.664Z,7.93
2023-05-17T14:40:13.864Z,8.43
2023-05-17T14:42:43.629Z,9.85
2023-05-17T14:45:11.852Z,12.35
2023-05-17T14:47:40.163Z,10.48
2023-05-17T14:50:09.047Z,6.15
2023-05-17T14:52:37.098Z,16.58
2023-05-17T14:55:05.973Z,16.90
2023-05-17T14:57:34.665Z,9.68
2023-05-17T15:00:10.461Z,8.50
2023-05-17T15:02:39.513Z,6.55
2023-05-17T15:05:08.597Z,6.05
2023-05-17T15:07:37.156Z,6.07
2023-05-17T15:10:05.867Z,6.22
2023-05-17T15:12:34.102Z,7.28
2023-05-17T15:15:02.698Z,12.73
2023-05-17T15:17:32.200Z,10.90
2023-05-17T15:20:00.666Z,14.93
2023-05-17T15:22:29.247Z,8.32
2023-05-17T15:24:58.456Z,10.45
2023-05-17T15:27:26.592Z,9.95
2023-05-17T15:29:54.785Z,17.30
2023-05-17T15:32:23.140Z,11.07
2023-05-17T15:34:53.097Z,6.20
2023-05-17T15:37:21.465Z,15.45
2023-05-17T15:39:49.784Z,12.15
2023-05-17T15:42:17.818Z,11.65
2023-05-17T15:44:46.121Z,7.55
2023-05-17T15:47:14.346Z,7.93
2023-05-17T15:49:42.561Z,7.90
2023-05-17T15:52:12.710Z,7.90
2023-05-17T15:54:42.232Z,11.25
2023-05-17T15:57:10.935Z,6.00
2023-05-17T15:59:39.305Z,7.88
2023-05-17T16:02:07.632Z,5.13
2023-05-17T16:04:36.083Z,9.75
2023-05-17T16:07:04.290Z,9.43
2023-05-17T16:09:33.862Z,7.32
2023-05-17T16:12:01.947Z,9.30
2023-05-17T16:14:30.164Z,8.43
2023-05-17T16:16:58.213Z,5.70
2023-05-17T16:19:27.573Z,10.38
2023-05-17T16:21:55.967Z,7.75
2023-05-17T16:24:24.572Z,9.77
2023-05-17T16:26:54.321Z,8.35
2023-05-17T16:29:22.399Z,9.68
2023-05-17T16:31:51.408Z,10.68
2023-05-17T16:34:19.659Z,13.63
2023-05-17T16:36:48.428Z,8.40
2023-05-17T16:39:16.937Z,15.07
2023-05-17T16:41:45.486Z,10.93
2023-05-17T16:44:14.896Z,10.65
2023-05-17T16:46:43.322Z,7.07
2023-05-17T16:49:11.445Z,8.57
2023-05-17T16:51:39.679Z,8.05
2023-05-17T16:54:07.958Z,8.40
2023-05-17T16:56:36.167Z,7.82
2023-05-17T16:59:04.273Z,7.88
2023-05-17T17:01:33.921Z,14.23
2023-05-17T17:04:02.129Z,8.75
2023-05-17T17:06:31.635Z,7.10
2023-05-17T17:08:59.842Z,13.43
2023-05-17T17:11:28.261Z,6.82
2023-05-17T17:13:56.427Z,7.13
2023-05-17T17:16:24.909Z,7.15
2023-05-17T17:18:54.449Z,13.25
2023-05-17T17:21:22.818Z,7.18
2023-05-17T17:23:51.284Z,11.48
2023-05-17T17:26:19.715Z,13.95
2023-05-17T17:28:47.790Z,7.57
2023-05-17T17:31:16.434Z,7.10
2023-05-17T17:33:44.808Z,8.20
2023-05-17T17:36:14.260Z,5.68
2023-05-17T17:38:42.485Z,9.23
2023-05-17T17:41:11.382Z,10.00
2023-05-17T17:43:41.364Z,5.57
2023-05-17T17:46:09.445Z,5.45
2023-05-17T17:48:37.886Z,10.02
2023-05-17T17:51:06.076Z,9.93
2023-05-17T17:53:36.000Z,9.23
2023-05-17T17:56:04.227Z,8.43
2023-05-17T17:58:32.578Z,10.60
2023-05-17T18:01:00.692Z,7.50
2023-05-17T18:03:29.120Z,11.82
2023-05-17T18:05:57.224Z,15.52
2023-05-17T18:08:25.531Z,12.57
2023-05-17T18:10:54.942Z,12.45
2023-05-17T18:13:23.281Z,16.83
2023-05-17T18:15:51.356Z,12.07
2023-05-17T18:18:19.697Z,9.45
2023-05-17T18:20:47.923Z,11.82
2023-05-17T18:23:16.265Z,11.38
2023-05-17T18:25:45.323Z,8.80
2023-05-17T18:28:15.011Z,12.70
2023-05-17T18:30:43.235Z,15.90
2023-05-17T18:33:11.615Z,16.08
2023-05-17T18:35:39.760Z,10.10
2023-05-17T18:38:08.032Z,8.52
2023-05-17T18:40:36.151Z,9.60
2023-05-17T18:43:04.537Z,8.25
2023-05-17T18:45:36.322Z,12.55
2023-05-17T18:48:05.081Z,13.32
2023-05-17T18:50:33.281Z,7.72
2023-05-17T18:53:01.501Z,9.45
2023-05-17T18:55:29.912Z,10.40
2023-05-17T18:57:58.078Z,7.68
2023-05-17T19:00:26.507Z,6.25
2023-05-17T19:02:56.015Z,8.65
2023-05-17T19:05:24.428Z,9.77
2023-05-17T19:07:52.549Z,9.73
2023-05-17T19:10:21.676Z,12.20
2023-05-17T19:12:49.749Z,10.73
2023-05-17T19:15:18.140Z,8.90
2023-05-17T19:17:46.308Z,9.93
2023-05-17T19:20:16.323Z,12.80
2023-05-17T19:22:44.432Z,9.20
2023-05-17T19:25:13.419Z,8.60
2023-05-17T19:27:43.682Z,11.20
2023-05-17T19:30:12.626Z,11.18
2023-05-17T19:32:41.052Z,8.98
2023-05-17T19:35:10.249Z,9.13
2023-05-17T19:37:39.709Z,9.02
2023-05-17T19:40:09.323Z,10.18
2023-05-17T19:42:38.794Z,9.55
2023-05-17T19:45:10.835Z,10.70
2023-05-17T19:47:38.959Z,6.55
2023-05-17T19:50:08.182Z,9.57
2023-05-17T19:52:36.990Z,8.60
2023-05-17T19:55:07.164Z,13.88
2023-05-17T19:57:35.390Z,12.27
2023-05-17T20:00:04.502Z,12.30
2023-05-17T20:02:32.627Z,8.10
2023-05-17T20:05:02.388Z,12.30
2023-05-17T20:07:30.762Z,11.27
2023-05-17T20:09:58.987Z,5.13
2023-05-17T20:12:28.656Z,8.40
2023-05-17T20:14:56.813Z,10.82
2023-05-17T20:17:25.188Z,9.73
2023-05-17T20:19:53.394Z,8.75
2023-05-17T20:22:23.325Z,11.80
2023-05-17T20:24:51.423Z,11.57
2023-05-17T20:27:19.915Z,8.45
2023-05-17T20:29:49.362Z,9.32
2023-05-17T20:32:17.732Z,5.57
2023-05-17T20:34:45.869Z,8.80
2023-05-17T20:37:14.203Z,8.85
2023-05-17T20:39:42.274Z,10.32
2023-05-17T20:42:10.757Z,8.40
2023-05-17T20:44:40.275Z,12.45
2023-05-17T20:47:09.983Z,10.27
2023-05-17T20:49:38.105Z,9.98
2023-05-17T20:52:07.096Z,9.13
2023-05-17T20:54:35.220Z,7.25
2023-05-17T20:57:04.234Z,9.95
2023-05-17T20:59:32.378Z,10.68
2023-05-17T21:02:00.776Z,7.85
2023-05-17T21:04:30.386Z,8.43
2023-05-17T21:06:58.747Z,8.93
2023-05-17T21:09:27.499Z,9.65
2023-05-17T21:11:56.114Z,9.20
2023-05-17T21:14:24.196Z,9.38
2023-05-17T21:16:53.629Z,8.88
2023-05-17T21:19:22.000Z,9.52
2023-05-17T21:21:51.506Z,9.80
2023-05-17T21:24:19.849Z,8.82
2023-05-17T21:26:47.933Z,10.63
2023-05-17T21:29:16.273Z,8.63
2023-05-17T21:31:44.525Z,6.22
2023-05-17T21:34:12.937Z,9.73
2023-05-17T21:36:41.048Z,6.82
2023-05-17T21:39:10.775Z,5.95
2023-05-17T21:41:38.874Z,6.90
2023-05-17T21:44:07.379Z,10.07
2023-05-17T21:46:35.506Z,13.00
2023-05-17T21:49:03.793Z,6.43
2023-05-17T21:51:32.306Z,7.65
2023-05-17T21:54:00.718Z,6.28
2023-05-17T21:56:30.464Z,7.32
2023-05-17T21:58:58.846Z,6.63
2023-05-17T22:01:27.165Z,7.00
2023-05-17T22:03:56.267Z,5.57
2023-05-17T22:06:24.603Z,5.07
2023-05-17T22:08:52.929Z,5.75
2023-05-17T22:11:22.796Z,8.02
2023-05-17T22:13:52.893Z,8.82
2023-05-17T22:16:23.671Z,6.30
2023-05-17T22:18:52.499Z,7.95
2023-05-17T22:21:21.382Z,8.23
2023-05-17T22:23:49.722Z,7.65
2023-05-17T22:26:17.870Z,12.85
2023-05-17T22:28:46.521Z,20.88
2023-05-17T22:31:18.356Z,9.25
2023-05-17T22:33:47.008Z,6.75
2023-05-17T22:36:17.191Z,10.63
2023-05-17T22:41:31.382Z,7.20
2023-05-17T22:43:59.689Z,5.85
2023-05-17T22:46:29.130Z,5.25
2023-05-17T22:48:59.201Z,4.75
2023-05-17T22:51:30.051Z,2.63
2023-05-17T22:54:00.129Z,4.50
2023-05-17T22:56:28.190Z,7.40
2023-05-17T22:58:56.608Z,3.55
2023-05-17T23:01:24.725Z,5.20
2023-05-17T23:03:54.544Z,4.72
2023-05-17T23:06:23.973Z,5.75
2023-05-17T23:08:53.034Z,4.80
2023-05-17T23:11:21.095Z,11.25
2023-05-17T23:13:49.324Z,4.45
2023-05-17T23:16:17.600Z,8.10
2023-05-17T23:18:46.316Z,7.63
2023-05-17T23:21:16.085Z,6.78
2023-05-17T23:23:44.216Z,7.07
2023-05-17T23:26:12.566Z,8.68
2023-05-17T23:28:41.233Z,8.13
2023-05-17T23:31:09.675Z,5.75
2023-05-17T23:33:38.854Z,5.80
2023-05-17T23:36:08.150Z,4.70
2023-05-17T23:38:37.672Z,5.60
2023-05-17T23:41:07.499Z,5.18
2023-05-17T23:43:35.740Z,4.80
2023-05-17T23:46:04.975Z,4.70
2023-05-17T23:48:34.242Z,7.88
2023-05-17T23:51:02.705Z,3.63
2023-05-17T23:53:30.770Z,5.07
2023-05-17T23:56:01.209Z,3.83
2023-05-17T23:58:29.287Z,15.70
